Time;durP1;ratioP1;P1;durP2;ratioP2;P2;SDS_P1;SDS_P2;PMS_P1;PMS_P2;Temp;Humidity;BMP_temperature;BMP_pressure;BME280_temperature;BME280_humidity;BME280_pressure;Samples;Min_cycle;Max_cycle;Signal;HPM_P1;HPM_P2
2023/02/17 00:02:00;;;;;;;4.73;3.33;;;12.80;99.90;;;;;;5056813;28;20205;-62
2023/02/17 00:04:27;;;;;;;5.20;3.20;;;12.80;99.90;;;;;;5057386;28;20205;-62
2023/02/17 00:06:54;;;;;;;6.03;3.40;;;12.80;99.90;;;;;;5057271;28;20229;-63
2023/02/17 00:09:21;;;;;;;7.17;3.30;;;12.70;99.90;;;;;;5056810;28;20212;-62
2023/02/17 00:11:48;;;;;;;5.33;3.20;;;12.70;99.90;;;;;;5056922;28;20205;-62
2023/02/17 00:14:15;;;;;;;5.10;3.50;;;12.70;99.90;;;;;;5057679;28;20220;-62
2023/02/17 00:16:42;;;;;;;9.50;3.40;;;12.70;99.90;;;;;;5056704;28;20232;-63
2023/02/17 00:19:23;;;;;;;6.23;3.10;;;12.70;99.90;;;;;;5056707;28;20216;-63
2023/02/17 00:21:50;;;;;;;5.47;3.47;;;12.70;99.90;;;;;;5056406;28;20639;-62
2023/02/17 00:24:17;;;;;;;8.43;3.30;;;12.70;99.90;;;;;;5056789;28;20213;-63
2023/02/17 00:26:44;;;;;;;8.00;3.40;;;12.70;99.90;;;;;;5056554;28;20232;-62
2023/02/17 00:29:11;;;;;;;6.40;3.10;;;12.70;99.90;;;;;;5056847;28;20232;-62
2023/02/17 00:31:37;;;;;;;4.17;2.97;;;12.80;99.90;;;;;;5056191;28;20205;-62
2023/02/17 00:34:04;;;;;;;8.47;3.10;;;12.80;99.90;;;;;;5056464;28;20209;-62
2023/02/17 00:36:33;;;;;;;5.43;3.00;;;12.80;99.90;;;;;;5056174;28;20229;-64
2023/02/17 00:38:59;;;;;;;6.20;3.40;;;12.80;99.90;;;;;;5056644;28;20205;-62
2023/02/17 00:41:27;;;;;;;6.47;3.30;;;12.80;99.90;;;;;;5056247;28;20217;-62
2023/02/17 00:43:54;;;;;;;6.10;3.33;;;12.80;99.90;;;;;;5056418;28;20206;-62
2023/02/17 00:46:22;;;;;;;4.67;3.00;;;12.80;99.90;;;;;;5055893;28;20238;-62
2023/02/17 00:48:49;;;;;;;4.23;3.03;;;12.90;99.90;;;;;;5055917;28;20228;-62
2023/02/17 00:51:17;;;;;;;5.67;2.70;;;12.80;99.90;;;;;;5056191;28;20210;-61
2023/02/17 00:53:46;;;;;;;7.60;3.40;;;12.80;99.90;;;;;;5055858;28;20666;-62
2023/02/17 00:56:13;;;;;;;7.23;3.23;;;12.80;99.90;;;;;;5055609;28;20213;-61
2023/02/17 00:58:41;;;;;;;4.10;2.70;;;12.90;99.90;;;;;;5055780;28;20205;-62
2023/02/17 01:01:07;;;;;;;3.93;2.73;;;12.90;99.90;;;;;;5055252;28;20201;-63
2023/02/17 01:03:34;;;;;;;4.97;2.83;;;12.90;99.90;;;;;;5054744;28;20206;-63
2023/02/17 01:06:06;;;;;;;4.33;3.00;;;13.00;99.90;;;;;;5055143;28;20213;-63
2023/02/17 01:08:33;;;;;;;4.07;2.60;;;12.90;99.90;;;;;;5055137;28;20226;-63
2023/02/17 01:11:01;;;;;;;4.30;2.93;;;13.00;99.90;;;;;;5055050;28;20244;-62
2023/02/17 01:13:28;;;;;;;7.80;2.90;;;13.00;99.90;;;;;;5054894;28;20209;-62
2023/02/17 01:15:55;;;;;;;8.57;2.60;;;12.90;99.90;;;;;;5054537;28;20202;-61
2023/02/17 01:18:23;;;;;;;4.70;2.70;;;12.90;99.90;;;;;;5055081;28;20224;-62
2023/02/17 01:20:50;;;;;;;7.00;2.70;;;12.80;99.90;;;;;;5055015;28;20594;-62
2023/02/17 01:23:17;;;;;;;7.20;2.60;;;12.80;99.90;;;;;;5054830;28;20206;-63
2023/02/17 01:25:46;;;;;;;4.70;2.70;;;12.80;99.90;;;;;;5054962;28;20584;-63
2023/02/17 01:28:16;;;;;;;6.17;2.60;;;12.80;99.90;;;;;;5054678;28;20232;-63
2023/02/17 01:30:43;;;;;;;5.93;2.70;;;12.70;99.90;;;;;;5054823;28;20216;-63
2023/02/17 01:33:10;;;;;;;4.43;2.70;;;12.70;99.90;;;;;;5054333;28;20241;-63
2023/02/17 01:35:36;;;;;;;6.87;3.10;;;12.70;99.90;;;;;;5054438;28;20688;-63
2023/02/17 01:38:03;;;;;;;3.73;2.70;;;12.70;99.90;;;;;;5054498;28;20229;-62
2023/02/17 01:40:30;;;;;;;5.00;2.33;;;12.80;99.90;;;;;;5054694;28;20217;-62
2023/02/17 01:42:56;;;;;;;6.73;2.90;;;12.80;99.90;;;;;;5054014;28;20209;-62
2023/02/17 01:45:37;;;;;;;6.70;2.80;;;12.80;99.90;;;;;;5054501;28;20217;-63
2023/02/17 01:48:09;;;;;;;6.07;2.53;;;12.80;99.90;;;;;;5054158;28;20233;-63
2023/02/17 01:50:39;;;;;;;3.47;2.37;;;12.80;99.90;;;;;;5053696;28;20267;-62
2023/02/17 01:53:09;;;;;;;5.03;2.60;;;12.80;99.90;;;;;;5054388;28;20270;-63
2023/02/17 01:55:37;;;;;;;5.93;2.60;;;12.90;99.90;;;;;;5054570;28;20213;-63
2023/02/17 01:58:06;;;;;;;6.73;2.73;;;12.80;99.90;;;;;;5054171;28;20276;-62
2023/02/17 02:00:36;;;;;;;3.10;2.47;;;12.80;99.90;;;;;;5054256;28;20679;-62
2023/02/17 02:03:06;;;;;;;5.27;2.30;;;12.80;99.90;;;;;;5054029;28;20206;-62
2023/02/17 02:05:33;;;;;;;4.60;2.60;;;12.70;99.90;;;;;;5054082;28;20594;-62
2023/02/17 02:08:00;;;;;;;5.37;2.90;;;12.70;99.90;;;;;;5054095;28;20653;-62
2023/02/17 02:10:27;;;;;;;7.03;2.53;;;12.70;99.90;;;;;;5053948;28;20213;-62
2023/02/17 02:12:53;;;;;;;6.53;3.10;;;12.70;99.90;;;;;;5053488;28;20210;-62
2023/02/17 02:15:23;;;;;;;4.87;2.57;;;12.70;99.90;;;;;;5054295;28;20271;-62
2023/02/17 02:18:03;;;;;;;5.40;2.40;;;12.80;99.90;;;;;;5053584;28;20229;-63
2023/02/17 02:21:06;;;;;;;7.83;2.37;;;12.80;99.90;;;;;;5053891;28;20209;-64
2023/02/17 02:24:04;;;;;;;5.30;2.40;;;12.90;99.90;;;;;;5051568;28;20259;-61
2023/02/17 02:26:53;;;;;;;4.50;2.57;;;12.90;99.90;;;;;;5053948;28;20229;-61
2023/02/17 02:29:42;;;;;;;4.50;2.33;;;12.90;99.90;;;;;;5053871;28;20237;-61
2023/02/17 02:32:41;;;;;;;4.83;2.60;;;13.00;99.90;;;;;;5053906;28;20205;-62
2023/02/17 02:35:13;;;;;;;4.70;2.40;;;12.90;99.90;;;;;;5054167;28;20197;-61
2023/02/17 02:37:43;;;;;;;6.93;2.43;;;13.00;99.90;;;;;;5053451;28;20232;-61
2023/02/17 02:40:14;;;;;;;4.43;2.23;;;12.90;99.90;;;;;;5053199;28;20695;-61
2023/02/17 02:42:42;;;;;;;3.23;2.33;;;12.90;99.90;;;;;;5052964;28;20217;-62
2023/02/17 02:45:10;;;;;;;4.10;2.60;;;12.90;99.90;;;;;;5053082;28;20213;-61
2023/02/17 02:47:47;;;;;;;6.07;2.70;;;12.90;99.90;;;;;;5053314;28;20238;-62
2023/02/17 02:50:16;;;;;;;7.20;2.40;;;12.90;99.90;;;;;;5053389;28;20213;-62
2023/02/17 02:52:57;;;;;;;4.80;2.27;;;12.90;99.90;;;;;;5052749;28;20209;-62
2023/02/17 02:55:37;;;;;;;4.83;2.50;;;12.90;99.90;;;;;;5053558;28;20258;-62
2023/02/17 02:58:11;;;;;;;4.93;2.73;;;12.90;99.90;;;;;;5053592;28;20232;-62
2023/02/17 03:00:47;;;;;;;4.97;2.57;;;12.90;99.90;;;;;;5053695;28;20209;-62
2023/02/17 03:03:20;;;;;;;5.43;2.53;;;12.80;99.90;;;;;;5053358;28;20592;-61
2023/02/17 03:05:55;;;;;;;5.73;2.67;;;12.80;99.90;;;;;;5053889;28;20209;-61
2023/02/17 03:08:31;;;;;;;5.03;2.23;;;12.80;99.90;;;;;;5053422;28;20228;-61
2023/02/17 03:10:58;;;;;;;4.67;2.60;;;12.80;99.90;;;;;;5053160;28;20194;-61
2023/02/17 03:13:25;;;;;;;6.13;2.27;;;12.80;99.90;;;;;;5052665;28;20209;-61
2023/02/17 03:15:52;;;;;;;4.40;2.53;;;12.70;99.90;;;;;;5053527;28;20202;-61
2023/02/17 03:18:20;;;;;;;4.57;2.50;;;12.60;99.90;;;;;;5053485;28;20226;-61
2023/02/17 03:20:51;;;;;;;3.43;2.30;;;12.60;99.90;;;;;;5053140;28;20213;-61
2023/02/17 03:23:18;;;;;;;4.53;2.43;;;12.60;99.90;;;;;;5052535;28;20241;-60
2023/02/17 03:25:46;;;;;;;5.47;2.60;;;12.50;99.90;;;;;;5052742;28;20210;-60
2023/02/17 03:28:13;;;;;;;5.70;2.40;;;12.40;99.90;;;;;;5052628;28;20332;-62
2023/02/17 03:30:40;;;;;;;10.33;2.57;;;12.40;99.90;;;;;;5052683;28;20207;-61
2023/02/17 03:33:06;;;;;;;5.13;2.20;;;12.30;99.90;;;;;;5052283;28;20212;-62
2023/02/17 03:35:34;;;;;;;6.00;2.40;;;12.30;99.90;;;;;;5052874;28;20217;-61
2023/02/17 03:38:01;;;;;;;6.27;2.63;;;12.30;99.90;;;;;;5052643;28;20225;-61
2023/02/17 03:40:28;;;;;;;7.60;2.60;;;12.30;99.90;;;;;;5052909;28;20257;-61
2023/02/17 03:42:56;;;;;;;7.20;2.40;;;12.30;99.90;;;;;;5052673;28;20231;-62
2023/02/17 03:45:23;;;;;;;4.00;2.30;;;12.30;99.90;;;;;;5053035;28;20297;-60
2023/02/17 03:47:50;;;;;;;5.67;2.50;;;12.30;99.90;;;;;;5052973;28;20655;-62
2023/02/17 03:50:16;;;;;;;3.77;2.40;;;12.30;99.90;;;;;;5052806;28;20209;-61
2023/02/17 03:52:45;;;;;;;5.90;2.30;;;12.40;99.90;;;;;;5052464;28;20209;-62
2023/02/17 03:55:11;;;;;;;3.60;2.33;;;12.40;99.90;;;;;;5052570;28;20209;-61
2023/02/17 03:57:38;;;;;;;4.17;2.07;;;12.50;99.90;;;;;;5052696;28;20236;-61
2023/02/17 04:00:06;;;;;;;9.57;2.60;;;12.50;99.90;;;;;;5052169;28;20240;-61
2023/02/17 04:02:33;;;;;;;3.93;2.30;;;12.60;99.90;;;;;;5052209;28;20263;-61
2023/02/17 04:05:00;;;;;;;7.13;2.57;;;12.70;99.90;;;;;;5052618;28;20214;-61
2023/02/17 04:07:26;;;;;;;5.07;2.47;;;12.70;99.90;;;;;;5051973;28;20237;-61
2023/02/17 04:09:54;;;;;;;5.77;2.83;;;12.70;99.90;;;;;;5052216;28;20225;-61
2023/02/17 04:12:21;;;;;;;5.90;2.23;;;12.70;99.90;;;;;;5052474;28;20666;-61
2023/02/17 04:14:48;;;;;;;8.73;3.80;;;12.60;99.90;;;;;;5055778;28;20209;-61
2023/02/17 04:17:14;;;;;;;7.37;2.50;;;12.70;99.90;;;;;;5056269;28;20225;-61
2023/02/17 04:19:41;;;;;;;3.57;2.57;;;12.70;99.90;;;;;;5055850;28;20205;-61
2023/02/17 04:22:08;;;;;;;3.90;2.17;;;12.70;99.90;;;;;;5056317;28;20213;-61
2023/02/17 04:24:36;;;;;;;4.60;2.63;;;12.70;99.90;;;;;;5056289;28;20272;-61
2023/02/17 04:27:04;;;;;;;5.77;2.30;;;12.80;99.90;;;;;;5055731;28;20257;-62
2023/02/17 04:29:32;;;;;;;6.60;2.47;;;12.80;99.90;;;;;;5055484;28;20229;-61
2023/02/17 04:31:58;;;;;;;6.37;2.57;;;12.80;99.90;;;;;;5056013;28;20214;-62
2023/02/17 04:34:25;;;;;;;8.43;2.83;;;12.80;99.90;;;;;;5055901;28;20210;-61
2023/02/17 04:36:52;;;;;;;6.23;2.70;;;12.80;99.90;;;;;;5055579;28;20236;-61
2023/02/17 04:39:19;;;;;;;5.93;2.50;;;12.70;99.90;;;;;;5055497;28;20205;-62
2023/02/17 04:41:45;;;;;;;8.77;2.47;;;12.80;99.90;;;;;;5055805;28;20228;-61
2023/02/17 04:44:13;;;;;;;5.27;2.73;;;12.80;99.90;;;;;;5055978;28;20205;-61
2023/02/17 04:46:40;;;;;;;6.13;2.77;;;12.70;99.90;;;;;;5055297;28;20237;-61
2023/02/17 04:49:07;;;;;;;4.60;2.50;;;12.70;99.90;;;;;;5055146;28;20736;-60
2023/02/17 04:51:34;;;;;;;5.70;3.03;;;12.70;99.90;;;;;;5055557;28;20205;-62
2023/02/17 04:54:00;;;;;;;7.57;2.50;;;12.80;99.90;;;;;;5054972;28;20213;-61
2023/02/17 04:56:27;;;;;;;6.50;2.77;;;12.90;99.90;;;;;;5055532;28;20643;-61
2023/02/17 04:58:54;;;;;;;7.20;2.80;;;13.00;99.90;;;;;;5054879;28;20209;-61
2023/02/17 05:01:22;;;;;;;7.03;2.80;;;13.10;99.90;;;;;;5055509;28;20222;-61
2023/02/17 05:03:48;;;;;;;4.43;2.60;;;13.00;99.90;;;;;;5055168;28;20217;-62
2023/02/17 05:06:15;;;;;;;5.20;3.13;;;13.10;99.90;;;;;;5055487;28;20226;-62
2023/02/17 05:08:42;;;;;;;6.13;2.87;;;13.10;99.90;;;;;;5055248;28;20224;-62
2023/02/17 05:11:08;;;;;;;6.63;2.53;;;13.10;99.90;;;;;;5055506;28;20588;-61
2023/02/17 05:13:35;;;;;;;5.03;2.70;;;13.10;99.90;;;;;;5055790;28;20216;-62
2023/02/17 05:16:02;;;;;;;4.63;2.50;;;13.20;99.90;;;;;;5056111;28;20614;-61
2023/02/17 05:18:30;;;;;;;6.17;2.87;;;13.10;99.90;;;;;;5055592;28;20206;-61
2023/02/17 05:20:57;;;;;;;5.60;2.87;;;13.10;99.90;;;;;;5055482;28;20359;-61
2023/02/17 05:23:24;;;;;;;10.47;3.20;;;13.10;99.90;;;;;;5055504;28;20205;-61
2023/02/17 05:25:50;;;;;;;6.93;2.50;;;13.10;99.90;;;;;;5053865;28;20693;-61
2023/02/17 05:28:17;;;;;;;4.37;3.00;;;13.20;99.90;;;;;;5055328;28;20232;-61
2023/02/17 05:30:44;;;;;;;7.53;2.90;;;13.10;99.90;;;;;;5055861;28;20206;-62
2023/02/17 05:33:11;;;;;;;5.57;2.43;;;13.20;99.90;;;;;;5055048;28;20632;-62
2023/02/17 05:35:39;;;;;;;5.67;2.73;;;13.20;99.90;;;;;;5055792;28;20637;-62
2023/02/17 05:38:05;;;;;;;3.50;2.40;;;13.30;99.90;;;;;;5056112;28;20230;-62
2023/02/17 05:40:32;;;;;;;6.83;2.63;;;13.30;99.90;;;;;;5056666;28;20205;-62
2023/02/17 05:42:59;;;;;;;6.23;2.50;;;13.30;99.90;;;;;;5056043;28;20213;-63
2023/02/17 05:45:25;;;;;;;5.03;2.57;;;13.30;99.90;;;;;;5055778;28;20206;-62
2023/02/17 05:47:52;;;;;;;5.90;3.47;;;13.30;99.90;;;;;;5055550;28;20236;-62
2023/02/17 05:50:19;;;;;;;4.53;2.53;;;13.30;99.90;;;;;;5057383;28;20234;-62
2023/02/17 05:52:47;;;;;;;8.13;2.47;;;13.30;99.90;;;;;;5055038;28;20213;-62
2023/02/17 05:55:14;;;;;;;4.87;2.70;;;13.30;99.90;;;;;;5054167;28;20206;-62
2023/02/17 05:57:40;;;;;;;8.50;3.90;;;13.30;99.90;;;;;;5053706;28;20740;-62
2023/02/17 06:00:08;;;;;;;6.60;3.50;;;13.30;99.90;;;;;;5053820;28;20251;-62
2023/02/17 06:02:35;;;;;;;4.10;2.90;;;13.30;99.90;;;;;;5053683;28;20209;-61
2023/02/17 06:05:02;;;;;;;5.27;2.70;;;13.30;99.90;;;;;;5053699;28;20205;-61
2023/02/17 06:07:28;;;;;;;7.43;2.60;;;13.40;99.90;;;;;;5053625;28;20221;-64
2023/02/17 06:09:56;;;;;;;8.53;2.67;;;13.40;99.90;;;;;;5055039;28;20697;-61
2023/02/17 06:12:23;;;;;;;6.17;3.07;;;13.30;99.90;;;;;;5054580;28;20216;-61
2023/02/17 06:14:50;;;;;;;9.07;2.77;;;13.30;99.90;;;;;;5055703;28;20206;-62
2023/02/17 06:17:17;;;;;;;5.60;2.93;;;13.20;99.90;;;;;;5055954;28;20230;-62
2023/02/17 06:19:43;;;;;;;6.63;3.00;;;13.10;99.90;;;;;;5056030;28;20201;-63
2023/02/17 06:22:10;;;;;;;6.00;2.80;;;13.20;99.90;;;;;;5056151;28;20200;-62
2023/02/17 06:24:37;;;;;;;5.53;3.00;;;13.20;99.90;;;;;;5056517;28;20211;-62
2023/02/17 06:27:06;;;;;;;5.20;2.90;;;13.30;99.90;;;;;;5056496;28;20725;-62
2023/02/17 06:29:33;;;;;;;4.97;3.10;;;13.30;99.90;;;;;;5057412;28;20252;-62
2023/02/17 06:32:00;;;;;;;6.40;2.90;;;13.30;99.90;;;;;;5056952;28;20209;-62
2023/02/17 06:34:27;;;;;;;6.53;2.67;;;13.10;99.90;;;;;;5056076;28;20665;-62
2023/02/17 06:36:55;;;;;;;4.17;2.77;;;13.20;99.90;;;;;;5054738;28;20237;-63
2023/02/17 06:39:22;;;;;;;7.40;3.07;;;13.10;99.90;;;;;;5055130;28;20202;-63
2023/02/17 06:41:50;;;;;;;6.20;2.80;;;13.20;99.90;;;;;;5055102;28;20725;-62
2023/02/17 06:44:18;;;;;;;7.77;3.07;;;13.20;99.90;;;;;;5054406;28;20300;-62
2023/02/17 06:46:45;;;;;;;6.87;2.77;;;13.20;99.90;;;;;;5055344;28;20233;-64
2023/02/17 06:49:13;;;;;;;5.10;2.53;;;13.20;99.90;;;;;;5056132;28;20606;-62
2023/02/17 06:51:40;;;;;;;6.87;2.77;;;13.20;99.90;;;;;;5054620;28;20241;-62
2023/02/17 06:54:06;;;;;;;7.93;3.77;;;13.20;99.90;;;;;;5053898;28;20554;-62
2023/02/17 06:56:33;;;;;;;7.27;3.00;;;13.20;99.90;;;;;;5054019;28;20225;-62
2023/02/17 06:59:01;;;;;;;6.27;3.03;;;13.30;99.90;;;;;;5054508;28;20206;-62
2023/02/17 07:01:29;;;;;;;5.80;3.00;;;13.30;99.90;;;;;;5054354;28;20217;-62
2023/02/17 07:03:56;;;;;;;6.93;2.70;;;13.30;99.90;;;;;;5054521;28;20577;-62
2023/02/17 07:06:24;;;;;;;4.60;2.53;;;13.30;99.90;;;;;;5054350;28;20225;-62
2023/02/17 07:08:51;;;;;;;8.03;2.60;;;13.30;99.90;;;;;;5053065;28;20205;-63
2023/02/17 07:11:18;;;;;;;6.63;2.43;;;13.40;99.90;;;;;;5053071;28;20212;-63
2023/02/17 07:13:45;;;;;;;5.70;2.90;;;13.50;99.90;;;;;;5053311;28;20665;-62
2023/02/17 07:16:13;;;;;;;6.20;2.57;;;13.50;99.90;;;;;;5053508;28;20624;-62
2023/02/17 07:18:41;;;;;;;5.47;2.70;;;13.40;99.90;;;;;;5054594;28;20225;-62
2023/02/17 07:21:09;;;;;;;6.27;2.67;;;13.30;99.90;;;;;;5054404;28;20224;-62
2023/02/17 07:23:37;;;;;;;5.23;2.80;;;13.30;99.90;;;;;;5054476;28;20673;-61
2023/02/17 07:26:07;;;;;;;7.33;2.77;;;13.20;99.90;;;;;;5053596;28;20289;-61
2023/02/17 07:28:33;;;;;;;4.30;2.73;;;13.20;99.90;;;;;;5053567;28;20228;-64
2023/02/17 07:31:06;;;;;;;7.27;2.63;;;13.20;99.90;;;;;;5054649;28;20256;-61
2023/02/17 07:33:33;;;;;;;3.50;2.33;;;13.20;99.90;;;;;;5054912;28;20201;-61
2023/02/17 07:36:06;;;;;;;8.67;3.13;;;13.20;99.90;;;;;;5055500;28;20633;-61
2023/02/17 07:38:32;;;;;;;4.30;2.20;;;13.30;99.90;;;;;;5055766;28;20575;-61
2023/02/17 07:41:04;;;;;;;5.67;2.00;;;13.30;99.90;;;;;;5054891;28;20209;-62
2023/02/17 07:43:31;;;;;;;7.83;2.97;;;13.30;99.90;;;;;;5055984;28;20259;-62
2023/02/17 07:45:58;;;;;;;6.40;2.70;;;13.40;99.90;;;;;;5053557;28;20650;-62
2023/02/17 07:48:25;;;;;;;5.47;2.47;;;13.50;99.90;;;;;;5056080;28;20232;-62
2023/02/17 07:50:51;;;;;;;12.07;2.77;;;13.50;99.90;;;;;;5058133;28;20240;-62
2023/02/17 07:53:19;;;;;;;5.23;2.70;;;13.60;99.90;;;;;;5058309;28;20205;-62
2023/02/17 07:55:46;;;;;;;7.60;3.87;;;13.60;99.90;;;;;;5057783;28;20202;-62
2023/02/17 07:58:13;;;;;;;4.67;2.33;;;13.60;99.90;;;;;;5058106;28;20221;-62
2023/02/17 08:00:40;;;;;;;7.10;2.53;;;13.60;99.90;;;;;;5057598;28;20669;-62
2023/02/17 08:03:09;;;;;;;11.67;2.60;;;13.60;99.90;;;;;;5058384;28;20206;-63
2023/02/17 08:05:38;;;;;;;5.10;2.40;;;13.60;99.90;;;;;;5058562;28;20205;-62
2023/02/17 08:13:46;;;;;;;7.63;2.27;;;13.70;99.90;;;;;;5057791;28;20252;-62
2023/02/17 08:16:13;;;;;;;6.57;2.53;;;13.80;99.90;;;;;;5058012;28;20665;-62
2023/02/17 08:18:40;;;;;;;4.57;2.23;;;13.90;99.90;;;;;;5057969;28;20214;-63
2023/02/17 08:21:06;;;;;;;5.13;2.70;;;14.00;99.90;;;;;;5058103;28;20206;-60
2023/02/17 08:23:34;;;;;;;6.37;3.20;;;14.20;99.90;;;;;;5055267;28;20565;-60
2023/02/17 08:26:02;;;;;;;5.60;2.83;;;14.40;99.90;;;;;;5055766;28;20233;-61
2023/02/17 08:28:28;;;;;;;3.10;2.20;;;14.60;99.90;;;;;;5055208;28;20209;-59
2023/02/17 08:30:55;;;;;;;8.00;2.00;;;14.70;99.90;;;;;;5055233;28;20230;-59
2023/02/17 08:33:22;;;;;;;3.27;2.03;;;14.80;99.90;;;;;;5055833;28;20213;-62
2023/02/17 08:35:48;;;;;;;4.07;1.93;;;14.70;99.90;;;;;;5056023;28;20209;-67
2023/02/17 08:38:15;;;;;;;5.57;2.67;;;14.70;99.90;;;;;;5055002;28;20228;-61
2023/02/17 08:40:42;;;;;;;6.37;3.00;;;14.70;99.90;;;;;;5054740;28;20237;-60
2023/02/17 08:43:10;;;;;;;5.93;1.90;;;14.70;99.90;;;;;;5054764;28;20206;-59
2023/02/17 08:45:37;;;;;;;3.63;2.40;;;14.60;99.90;;;;;;5054758;28;20221;-59
2023/02/17 08:48:04;;;;;;;5.00;1.90;;;14.70;99.90;;;;;;5055116;28;20290;-60
2023/02/17 08:50:32;;;;;;;6.67;2.83;;;14.60;99.90;;;;;;5055021;28;20260;-61
2023/02/17 08:52:59;;;;;;;4.20;2.30;;;14.60;99.90;;;;;;5054479;28;20205;-61
2023/02/17 08:55:26;;;;;;;10.37;2.10;;;14.50;99.90;;;;;;5054775;28;20236;-61
2023/02/17 08:57:52;;;;;;;3.20;2.20;;;14.60;99.90;;;;;;5054381;28;20280;-61
2023/02/17 09:00:21;;;;;;;5.07;2.07;;;14.60;99.90;;;;;;5054046;28;20236;-61
2023/02/17 09:02:48;;;;;;;4.97;2.07;;;14.60;99.90;;;;;;5054926;28;20205;-61
2023/02/17 09:05:15;;;;;;;4.07;2.20;;;14.70;99.90;;;;;;5054524;28;20637;-60
2023/02/17 09:07:41;;;;;;;5.97;1.80;;;15.00;99.90;;;;;;5054414;28;20739;-62
2023/02/17 09:10:10;;;;;;;5.17;1.80;;;15.20;99.90;;;;;;5054355;28;20717;-61
2023/02/17 09:12:36;;;;;;;4.60;1.73;;;15.30;99.90;;;;;;5054257;28;20564;-59
2023/02/17 09:15:03;;;;;;;4.10;2.30;;;15.30;99.90;;;;;;5054133;28;20251;-61
2023/02/17 09:17:31;;;;;;;8.57;3.77;;;15.20;99.90;;;;;;5054120;28;20617;-63
2023/02/17 09:19:58;;;;;;;20.53;2.43;;;15.10;99.90;;;;;;5054421;28;20210;-61
2023/02/17 09:22:25;;;;;;;6.90;2.00;;;15.00;99.90;;;;;;5054056;28;20213;-60
2023/02/17 09:24:51;;;;;;;7.10;2.33;;;14.90;99.90;;;;;;5054279;28;20213;-61
2023/02/17 09:27:18;;;;;;;5.53;2.43;;;14.80;99.90;;;;;;5054163;28;20225;-61
2023/02/17 09:29:45;;;;;;;7.37;1.97;;;14.80;99.90;;;;;;5054227;28;20209;-62
2023/02/17 09:32:11;;;;;;;5.57;1.60;;;14.80;99.90;;;;;;5054248;28;20591;-61
2023/02/17 09:34:40;;;;;;;4.80;2.00;;;14.80;99.90;;;;;;5050387;28;20559;-59
2023/02/17 09:37:11;;;;;;;4.30;1.97;;;14.80;99.90;;;;;;5052560;28;20225;-62
2023/02/17 09:39:38;;;;;;;6.10;2.87;;;14.90;99.90;;;;;;5053438;28;20237;-63
2023/02/17 09:42:05;;;;;;;4.33;2.63;;;15.00;99.90;;;;;;5051965;28;20293;-64
2023/02/17 09:44:40;;;;;;;5.83;1.97;;;15.30;99.90;;;;;;5052798;28;20214;-66
2023/02/17 09:47:11;;;;;;;4.57;1.73;;;15.40;99.90;;;;;;5052306;28;20235;-65
2023/02/17 09:49:43;;;;;;;3.30;1.73;;;15.50;99.90;;;;;;5052530;28;20209;-62
2023/02/17 09:52:13;;;;;;;4.03;1.80;;;15.60;99.90;;;;;;5052978;28;20276;-59
2023/02/17 09:54:51;;;;;;;2.50;1.70;;;15.70;99.90;;;;;;5052016;28;20296;-63
2023/02/17 09:57:21;;;;;;;3.75;1.70;;;15.80;99.90;;;;;;5052932;28;20229;-60
2023/02/17 09:59:52;;;;;;;7.83;1.80;;;16.00;99.90;;;;;;5052455;28;20202;-60
2023/02/17 10:02:27;;;;;;;4.70;1.50;;;16.10;99.90;;;;;;5052079;28;20546;-61
2023/02/17 10:04:57;;;;;;;3.17;1.70;;;16.10;99.90;;;;;;5052498;28;20224;-61
2023/02/17 10:07:29;;;;;;;5.13;1.75;;;16.00;99.90;;;;;;5052186;28;20717;-62
2023/02/17 10:10:03;;;;;;;4.73;1.67;;;15.90;99.90;;;;;;5052861;28;20212;-62
2023/02/17 10:12:36;;;;;;;6.27;2.50;;;16.20;99.90;;;;;;5053204;28;20209;-59
2023/02/17 10:15:07;;;;;;;4.05;1.75;;;16.50;99.90;;;;;;5052793;28;20263;-64
2023/02/17 10:17:40;;;;;;;2.47;1.40;;;17.00;99.90;;;;;;5051826;28;20217;-61
2023/02/17 10:20:12;;;;;;;4.25;1.70;;;17.10;99.90;;;;;;5053308;28;20476;-62
2023/02/17 10:22:42;;;;;;;4.03;2.17;;;17.30;99.90;;;;;;5048633;28;20205;-63
2023/02/17 10:25:15;;;;;;;3.30;2.00;;;17.20;99.90;;;;;;5052571;28;20206;-62
2023/02/17 10:27:46;;;;;;;1.92;1.30;;;17.20;99.90;;;;;;5055389;28;20229;-63
2023/02/17 10:30:24;;;;;;;3.55;1.52;;;17.20;99.90;;;;;;5052338;28;20237;-62
2023/02/17 10:32:59;;;;;;;3.55;1.40;;;17.20;99.90;;;;;;5052066;28;20296;-62
2023/02/17 10:35:55;;;;;;;5.47;1.60;;;17.00;99.90;;;;;;5051506;28;20642;-60
2023/02/17 10:38:35;;;;;;;3.67;1.73;;;16.90;99.90;;;;;;5036543;28;20581;-61
2023/02/17 10:41:05;;;;;;;4.05;1.80;;;16.90;99.90;;;;;;5051576;28;20665;-61
2023/02/17 10:43:33;;;;;;;2.67;1.42;;;17.10;99.90;;;;;;5051417;28;20700;-61
2023/02/17 10:46:02;;;;;;;2.83;1.20;;;17.20;99.90;;;;;;5052077;28;20205;-60
2023/02/17 10:48:35;;;;;;;5.95;1.70;;;17.50;99.90;;;;;;5051309;28;20243;-60
2023/02/17 10:51:04;;;;;;;3.50;1.60;;;17.90;99.90;;;;;;5052427;28;20213;-62
2023/02/17 10:53:34;;;;;;;4.32;1.77;;;18.20;99.90;;;;;;5051586;28;20209;-62
2023/02/17 10:56:04;;;;;;;4.53;2.22;;;18.40;99.90;;;;;;5051381;28;20218;-62
2023/02/17 10:58:35;;;;;;;5.57;2.60;;;18.40;99.90;;;;;;5051697;28;20696;-62
2023/02/17 11:01:05;;;;;;;4.50;1.60;;;18.40;99.90;;;;;;5051364;28;20197;-60
2023/02/17 11:03:35;;;;;;;3.20;1.25;;;18.30;99.90;;;;;;5050857;28;20220;-60
2023/02/17 11:06:06;;;;;;;2.55;1.30;;;18.40;99.90;;;;;;5050868;28;20666;-61
2023/02/17 11:08:37;;;;;;;3.72;1.17;;;18.50;99.90;;;;;;5051372;28;20274;-61
2023/02/17 11:11:05;;;;;;;1.35;1.05;;;18.50;99.90;;;;;;5051390;28;20231;-62
2023/02/17 11:13:37;;;;;;;2.17;1.20;;;18.60;99.90;;;;;;5050828;28;20267;-61
2023/02/17 11:16:05;;;;;;;8.23;6.30;;;18.70;99.90;;;;;;5051467;28;20205;-59
2023/02/17 11:18:34;;;;;;;8.30;1.50;;;18.70;99.90;;;;;;5051313;28;20206;-62
2023/02/17 11:21:08;;;;;;;3.08;2.30;;;18.70;99.90;;;;;;5051500;28;20214;-62
2023/02/17 11:23:36;;;;;;;1.48;1.10;;;18.50;99.90;;;;;;5050849;28;20295;-61
2023/02/17 11:26:10;;;;;;;1.45;1.08;;;18.20;99.90;;;;;;5050921;28;20201;-61
2023/02/17 11:28:37;;;;;;;4.70;1.70;;;18.10;99.90;;;;;;5051245;28;20236;-62
2023/02/17 11:31:05;;;;;;;5.15;1.30;;;18.00;99.90;;;;;;5050749;28;20229;-61
2023/02/17 11:33:35;;;;;;;2.35;1.40;;;17.80;99.90;;;;;;5051052;28;20213;-63
2023/02/17 11:36:02;;;;;;;2.63;1.40;;;17.60;99.90;;;;;;5051102;28;20694;-60
2023/02/17 11:38:42;;;;;;;2.58;1.40;;;17.70;99.90;;;;;;5050973;28;20721;-61
2023/02/17 11:41:09;;;;;;;1.42;1.17;;;17.70;99.90;;;;;;5051285;28;20734;-63
2023/02/17 11:43:37;;;;;;;8.20;4.47;;;17.70;99.90;;;;;;5050715;28;20586;-61
2023/02/17 11:46:22;;;;;;;2.63;1.38;;;17.70;99.90;;;;;;5050764;28;20683;-59
2023/02/17 11:49:07;;;;;;;4.63;1.80;;;17.50;99.90;;;;;;5050560;28;20577;-59
2023/02/17 11:51:48;;;;;;;3.92;1.52;;;17.30;99.90;;;;;;5050605;28;20251;-62
2023/02/17 11:54:23;;;;;;;5.28;1.90;;;17.10;99.90;;;;;;5050480;28;20244;-60
2023/02/17 11:57:03;;;;;;;2.40;1.75;;;16.90;99.90;;;;;;5050450;28;20237;-61
2023/02/17 11:59:50;;;;;;;3.60;1.70;;;16.80;99.90;;;;;;5060283;28;20200;-60
2023/02/17 12:02:31;;;;;;;4.45;1.60;;;16.80;99.90;;;;;;5063239;28;20205;-60
2023/02/17 12:05:20;;;;;;;5.60;1.80;;;16.70;99.90;;;;;;5051793;28;20700;-65
2023/02/17 12:08:00;;;;;;;3.22;1.50;;;16.80;99.90;;;;;;5052583;28;20226;-58
2023/02/17 12:10:51;;;;;;;2.45;1.55;;;16.80;99.90;;;;;;5051398;28;20212;-58
2023/02/17 12:13:47;;;;;;;6.90;1.50;;;16.90;99.90;;;;;;5051117;28;20217;-58
2023/02/17 12:16:34;;;;;;;3.70;1.73;;;16.90;99.90;;;;;;5050840;28;20229;-65
2023/02/17 12:19:10;;;;;;;5.57;2.28;;;16.80;99.90;;;;;;5049869;28;20212;-62
2023/02/17 12:21:51;;;;;;;4.40;1.67;;;16.80;99.90;;;;;;5050473;28;20209;-61
2023/02/17 12:24:41;;;;;;;7.03;2.10;;;16.60;99.90;;;;;;5050697;28;20205;-67
2023/02/17 12:27:20;;;;;;;5.20;2.10;;;16.40;99.90;;;;;;5051737;28;20226;-58
2023/02/17 12:30:02;;;;;;;9.27;2.30;;;16.20;99.90;;;;;;5051516;28;20214;-59
2023/02/17 12:32:42;;;;;;;8.52;3.08;;;15.80;99.90;;;;;;5051405;28;20225;-59
2023/02/17 12:35:17;;;;;;;11.10;2.78;;;15.70;99.90;;;;;;5054160;28;20213;-59
2023/02/17 12:37:50;;;;;;;5.47;1.80;;;15.60;99.90;;;;;;5055041;28;20225;-59
2023/02/17 12:40:35;;;;;;;7.47;2.30;;;15.50;99.90;;;;;;5055222;28;20200;-59
2023/02/17 12:43:15;;;;;;;4.38;1.88;;;15.50;99.90;;;;;;5054631;28;20209;-60
2023/02/17 12:45:45;;;;;;;5.53;2.07;;;15.60;99.90;;;;;;5054871;28;20205;-60
2023/02/17 12:48:20;;;;;;;6.50;2.50;;;15.70;99.90;;;;;;5054516;28;20237;-60
2023/02/17 12:50:54;;;;;;;9.60;2.55;;;15.90;99.90;;;;;;5054783;28;20204;-62
2023/02/17 12:53:31;;;;;;;5.03;2.53;;;16.10;99.90;;;;;;5054740;28;20621;-59
2023/02/17 12:56:03;;;;;;;8.43;2.92;;;16.20;99.90;;;;;;5054437;28;20221;-58
2023/02/17 12:58:33;;;;;;;3.95;2.40;;;16.30;99.90;;;;;;5054890;28;20650;-60
2023/02/17 13:01:06;;;;;;;10.60;3.92;;;16.40;99.90;;;;;;5054714;28;20665;-60
2023/02/17 13:03:34;;;;;;;7.63;2.58;;;16.50;99.90;;;;;;5054493;28;20553;-62
2023/02/17 13:06:11;;;;;;;4.05;1.92;;;16.50;99.90;;;;;;5054564;28;20668;-58